sensor_id;sensor_type;location;lat;lon;timestamp;pressure;altitude;pressure_sealevel;temperature;humidity
37068;BME280;22982;42.848;25.468;2023-09-19T00:00:22;96654.19;;;11.20;100.00
37068;BME280;22982;42.848;25.468;2023-09-19T00:05:26;96653.94;;;11.24;100.00
37068;BME280;22982;42.848;25.468;2023-09-19T00:10:31;96647.72;;;11.25;100.00
37068;BME280;22982;42.848;25.468;2023-09-19T00:15:39;96646.66;;;11.29;100.00
37068;BME280;22982;42.848;25.468;2023-09-19T00:20:42;96632.75;;;11.27;100.00
37068;BME280;22982;42.848;25.468;2023-09-19T00:25:50;96644.78;;;11.32;100.00
37068;BME280;22982;42.848;25.468;2023-09-19T00:30:53;96634.81;;;11.22;100.00
37068;BME280;22982;42.848;25.468;2023-09-19T00:35:59;96635.78;;;11.36;100.00
37068;BME280;22982;42.848;25.468;2023-09-19T00:41:04;96637.06;;;11.28;100.00
37068;BME280;22982;42.848;25.468;2023-09-19T00:46:07;96621.16;;;11.16;100.00
37068;BME280;22982;42.848;25.468;2023-09-19T00:51:10;96636.66;;;11.20;100.00
37068;BME280;22982;42.848;25.468;2023-09-19T00:56:13;96624.16;;;11.09;100.00
37068;BME280;22982;42.848;25.468;2023-09-19T01:01:22;96639.31;;;10.88;100.00
37068;BME280;22982;42.848;25.468;2023-09-19T01:06:24;96633.16;;;10.89;100.00
37068;BME280;22982;42.848;25.468;2023-09-19T01:11:35;96634.50;;;10.97;100.00
37068;BME280;22982;42.848;25.468;2023-09-19T01:16:47;96628.06;;;10.86;100.00
37068;BME280;22982;42.848;25.468;2023-09-19T01:23:05;96628.38;;;10.96;100.00
37068;BME280;22982;42.848;25.468;2023-09-19T01:32:50;96624.50;;;10.87;100.00
37068;BME280;22982;42.848;25.468;2023-09-19T01:37:55;96628.91;;;10.71;100.00
37068;BME280;22982;42.848;25.468;2023-09-19T01:43:02;96618.84;;;10.63;100.00
37068;BME280;22982;42.848;25.468;2023-09-19T01:53:55;96609.94;;;10.66;100.00
37068;BME280;22982;42.848;25.468;2023-09-19T01:59:06;96596.25;;;10.77;100.00
37068;BME280;22982;42.848;25.468;2023-09-19T02:04:11;96618.66;;;10.17;100.00
37068;BME280;22982;42.848;25.468;2023-09-19T02:09:15;96609.66;;;10.23;100.00
37068;BME280;22982;42.848;25.468;2023-09-19T02:14:19;96599.47;;;10.34;100.00
37068;BME280;22982;42.848;25.468;2023-09-19T02:19:22;96599.16;;;10.23;100.00
37068;BME280;22982;42.848;25.468;2023-09-19T02:24:24;96597.91;;;10.30;100.00
37068;BME280;22982;42.848;25.468;2023-09-19T02:29:28;96599.13;;;10.40;100.00
37068;BME280;22982;42.848;25.468;2023-09-19T02:34:31;96591.88;;;10.28;100.00
37068;BME280;22982;42.848;25.468;2023-09-19T02:39:34;96582.09;;;10.15;100.00
37068;BME280;22982;42.848;25.468;2023-09-19T02:44:37;96590.41;;;10.06;100.00
37068;BME280;22982;42.848;25.468;2023-09-19T02:49:40;96570.41;;;10.21;100.00
37068;BME280;22982;42.848;25.468;2023-09-19T02:54:45;96569.13;;;10.12;100.00
37068;BME280;22982;42.848;25.468;2023-09-19T02:59:48;96577.91;;;10.11;100.00
37068;BME280;22982;42.848;25.468;2023-09-19T03:04:50;96557.91;;;10.10;100.00
37068;BME280;22982;42.848;25.468;2023-09-19T03:09:54;96574.03;;;10.19;100.00
37068;BME280;22982;42.848;25.468;2023-09-19T03:14:57;96571.88;;;10.27;100.00
37068;BME280;22982;42.848;25.468;2023-09-19T03:19:59;96565.56;;;9.98;100.00
37068;BME280;22982;42.848;25.468;2023-09-19T03:25:03;96580.41;;;9.97;100.00
37068;BME280;22982;42.848;25.468;2023-09-19T03:30:12;96580.28;;;10.00;100.00
37068;BME280;22982;42.848;25.468;2023-09-19T03:35:17;96584.28;;;9.90;100.00
37068;BME280;22982;42.848;25.468;2023-09-19T03:40:21;96608.84;;;9.54;100.00
37068;BME280;22982;42.848;25.468;2023-09-19T03:45:24;96597.63;;;9.34;100.00
37068;BME280;22982;42.848;25.468;2023-09-19T03:50:27;96614.38;;;9.65;100.00
37068;BME280;22982;42.848;25.468;2023-09-19T03:55:30;96606.13;;;9.73;100.00
37068;BME280;22982;42.848;25.468;2023-09-19T04:00:32;96609.16;;;9.99;100.00
37068;BME280;22982;42.848;25.468;2023-09-19T04:05:40;96611.84;;;9.97;100.00
37068;BME280;22982;42.848;25.468;2023-09-19T04:10:43;96615.56;;;9.93;100.00
37068;BME280;22982;42.848;25.468;2023-09-19T04:15:48;96613.91;;;9.92;100.00
37068;BME280;22982;42.848;25.468;2023-09-19T04:20:50;96604.94;;;9.96;100.00
37068;BME280;22982;42.848;25.468;2023-09-19T04:25:53;96597.00;;;10.13;100.00
37068;BME280;22982;42.848;25.468;2023-09-19T04:30:56;96598.22;;;10.24;100.00
37068;BME280;22982;42.848;25.468;2023-09-19T04:35:59;96596.34;;;10.10;100.00
37068;BME280;22982;42.848;25.468;2023-09-19T04:41:22;96593.25;;;9.86;100.00
37068;BME280;22982;42.848;25.468;2023-09-19T04:46:25;96587.59;;;10.27;100.00
37068;BME280;22982;42.848;25.468;2023-09-19T04:51:28;96592.56;;;10.15;100.00
37068;BME280;22982;42.848;25.468;2023-09-19T04:56:36;96586.13;;;10.05;100.00
37068;BME280;22982;42.848;25.468;2023-09-19T05:01:42;96579.72;;;10.27;100.00
37068;BME280;22982;42.848;25.468;2023-09-19T05:06:45;96583.25;;;10.26;100.00
37068;BME280;22982;42.848;25.468;2023-09-19T05:11:48;96591.69;;;10.48;100.00
37068;BME280;22982;42.848;25.468;2023-09-19T05:16:51;96584.75;;;10.63;100.00
37068;BME280;22982;42.848;25.468;2023-09-19T05:21:54;96587.97;;;10.84;100.00
37068;BME280;22982;42.848;25.468;2023-09-19T05:26:56;96573.38;;;10.95;100.00
37068;BME280;22982;42.848;25.468;2023-09-19T05:32:00;96565.50;;;10.95;100.00
37068;BME280;22982;42.848;25.468;2023-09-19T05:37:02;96580.38;;;11.10;100.00
37068;BME280;22982;42.848;25.468;2023-09-19T05:42:06;96577.06;;;11.22;100.00
37068;BME280;22982;42.848;25.468;2023-09-19T05:47:10;96554.16;;;11.55;100.00
37068;BME280;22982;42.848;25.468;2023-09-19T05:52:13;96559.44;;;11.98;100.00
37068;BME280;22982;42.848;25.468;2023-09-19T05:57:15;96513.28;;;18.44;100.00
37068;BME280;22982;42.848;25.468;2023-09-19T06:02:18;96500.81;;;25.35;53.17
37068;BME280;22982;42.848;25.468;2023-09-19T06:07:22;96485.88;;;28.26;41.40
37068;BME280;22982;42.848;25.468;2023-09-19T06:12:28;96485.41;;;31.04;37.21
37068;BME280;22982;42.848;25.468;2023-09-19T06:17:32;96473.97;;;32.35;34.37
37068;BME280;22982;42.848;25.468;2023-09-19T06:22:35;96469.31;;;32.42;33.97
37068;BME280;22982;42.848;25.468;2023-09-19T06:27:39;96477.75;;;33.19;33.47
37068;BME280;22982;42.848;25.468;2023-09-19T06:32:44;96468.09;;;32.56;34.56
37068;BME280;22982;42.848;25.468;2023-09-19T06:37:48;96471.47;;;31.33;36.44
37068;BME280;22982;42.848;25.468;2023-09-19T06:42:52;96471.47;;;31.90;36.27
37068;BME280;22982;42.848;25.468;2023-09-19T06:47:56;96450.00;;;31.63;36.84
37068;BME280;22982;42.848;25.468;2023-09-19T06:53:00;96454.25;;;32.95;35.97
37068;BME280;22982;42.848;25.468;2023-09-19T06:58:04;96446.06;;;32.65;36.42
37068;BME280;22982;42.848;25.468;2023-09-19T07:03:08;96440.88;;;32.93;36.78
37068;BME280;22982;42.848;25.468;2023-09-19T07:08:14;96444.72;;;31.50;39.07
37068;BME280;22982;42.848;25.468;2023-09-19T07:13:17;96446.22;;;30.68;41.09
37068;BME280;22982;42.848;25.468;2023-09-19T07:18:19;96436.94;;;30.31;42.52
37068;BME280;22982;42.848;25.468;2023-09-19T07:23:23;96436.66;;;29.47;44.93
37068;BME280;22982;42.848;25.468;2023-09-19T07:28:25;96447.25;;;28.67;47.17
37068;BME280;22982;42.848;25.468;2023-09-19T07:33:28;96444.63;;;28.80;46.66
37068;BME280;22982;42.848;25.468;2023-09-19T07:38:31;96437.72;;;28.23;48.79
37068;BME280;22982;42.848;25.468;2023-09-19T07:43:37;96420.41;;;28.52;47.82
37068;BME280;22982;42.848;25.468;2023-09-19T07:48:44;96422.84;;;28.82;49.39
37068;BME280;22982;42.848;25.468;2023-09-19T07:53:51;96418.81;;;28.58;53.11
37068;BME280;22982;42.848;25.468;2023-09-19T07:58:54;96411.72;;;29.18;52.65
37068;BME280;22982;42.848;25.468;2023-09-19T08:03:59;96403.81;;;29.44;50.75
37068;BME280;22982;42.848;25.468;2023-09-19T08:09:02;96395.03;;;30.02;49.15
37068;BME280;22982;42.848;25.468;2023-09-19T08:14:09;96395.03;;;30.02;48.53
37068;BME280;22982;42.848;25.468;2023-09-19T08:19:16;96384.44;;;29.93;43.78
37068;BME280;22982;42.848;25.468;2023-09-19T08:24:19;96360.50;;;29.97;44.83
37068;BME280;22982;42.848;25.468;2023-09-19T08:29:23;96366.97;;;29.96;43.96
37068;BME280;22982;42.848;25.468;2023-09-19T08:34:29;96359.53;;;30.30;42.12
37068;BME280;22982;42.848;25.468;2023-09-19T08:39:36;96361.56;;;30.86;39.46
37068;BME280;22982;42.848;25.468;2023-09-19T08:44:40;96360.63;;;30.67;36.21
37068;BME280;22982;42.848;25.468;2023-09-19T08:49:53;96363.50;;;30.79;39.84
37068;BME280;22982;42.848;25.468;2023-09-19T08:55:02;96351.25;;;31.59;38.51
37068;BME280;22982;42.848;25.468;2023-09-19T09:00:09;96351.91;;;30.65;40.67
37068;BME280;22982;42.848;25.468;2023-09-19T09:05:14;96334.94;;;31.15;38.61
37068;BME280;22982;42.848;25.468;2023-09-19T09:10:25;96321.22;;;29.94;39.75
37068;BME280;22982;42.848;25.468;2023-09-19T09:15:29;96331.66;;;29.71;36.19
37068;BME280;22982;42.848;25.468;2023-09-19T09:20:34;96316.75;;;30.97;34.73
37068;BME280;22982;42.848;25.468;2023-09-19T09:25:54;96279.66;;;30.98;32.29
37068;BME280;22982;42.848;25.468;2023-09-19T09:30:59;96301.44;;;30.78;35.49
37068;BME280;22982;42.848;25.468;2023-09-19T09:36:03;96307.13;;;30.69;34.09
37068;BME280;22982;42.848;25.468;2023-09-19T09:41:06;96313.56;;;31.25;36.28
37068;BME280;22982;42.848;25.468;2023-09-19T09:46:18;96293.56;;;31.70;35.65
37068;BME280;22982;42.848;25.468;2023-09-19T09:51:30;96307.28;;;31.75;33.63
37068;BME280;22982;42.848;25.468;2023-09-19T09:56:33;96275.53;;;31.94;33.79
37068;BME280;22982;42.848;25.468;2023-09-19T10:01:47;96280.44;;;30.73;33.94
37068;BME280;22982;42.848;25.468;2023-09-19T10:06:55;96294.81;;;31.24;34.24
37068;BME280;22982;42.848;25.468;2023-09-19T10:12:11;96301.78;;;30.88;34.91
37068;BME280;22982;42.848;25.468;2023-09-19T10:17:16;96278.78;;;31.47;33.41
37068;BME280;22982;42.848;25.468;2023-09-19T10:22:23;96273.81;;;31.44;33.88
37068;BME280;22982;42.848;25.468;2023-09-19T10:27:27;96272.00;;;31.13;34.41
37068;BME280;22982;42.848;25.468;2023-09-19T10:32:32;96238.09;;;31.10;34.96
37068;BME280;22982;42.848;25.468;2023-09-19T10:37:35;96260.28;;;30.37;35.44
37068;BME280;22982;42.848;25.468;2023-09-19T10:42:40;96245.97;;;30.87;35.40
37068;BME280;22982;42.848;25.468;2023-09-19T10:47:44;96281.41;;;30.15;38.36
37068;BME280;22982;42.848;25.468;2023-09-19T10:52:47;96261.34;;;29.98;39.28
37068;BME280;22982;42.848;25.468;2023-09-19T10:58:01;96277.28;;;30.06;39.01
37068;BME280;22982;42.848;25.468;2023-09-19T11:08:14;96267.84;;;29.70;37.69
37068;BME280;22982;42.848;25.468;2023-09-19T11:13:28;96268.31;;;29.47;37.49
37068;BME280;22982;42.848;25.468;2023-09-19T11:29:28;96239.22;;;28.09;38.21
37068;BME280;22982;42.848;25.468;2023-09-19T11:39:39;96241.78;;;29.37;35.25
37068;BME280;22982;42.848;25.468;2023-09-19T11:44:44;96226.34;;;29.51;33.43
37068;BME280;22982;42.848;25.468;2023-09-19T11:49:46;96221.84;;;28.38;31.44
37068;BME280;22982;42.848;25.468;2023-09-19T11:54:56;96226.75;;;28.07;32.28
37068;BME280;22982;42.848;25.468;2023-09-19T11:59:59;96195.72;;;28.52;33.43
37068;BME280;22982;42.848;25.468;2023-09-19T12:05:13;96228.31;;;28.83;32.25
37068;BME280;22982;42.848;25.468;2023-09-19T12:10:17;96219.78;;;28.47;33.45
37068;BME280;22982;42.848;25.468;2023-09-19T12:15:24;96208.53;;;28.16;33.49
37068;BME280;22982;42.848;25.468;2023-09-19T12:20:44;96186.16;;;28.16;36.80
37068;BME280;22982;42.848;25.468;2023-09-19T12:25:52;96209.75;;;28.00;44.71
37068;BME280;22982;42.848;25.468;2023-09-19T12:31:06;96213.84;;;27.83;44.19
37068;BME280;22982;42.848;25.468;2023-09-19T12:36:22;96203.13;;;27.48;50.25
37068;BME280;22982;42.848;25.468;2023-09-19T12:41:37;96202.56;;;26.89;48.41
37068;BME280;22982;42.848;25.468;2023-09-19T12:46:40;96221.53;;;27.38;43.56
37068;BME280;22982;42.848;25.468;2023-09-19T12:51:47;96220.66;;;27.85;42.14
37068;BME280;22982;42.848;25.468;2023-09-19T18:15:54;96344.31;;;18.04;100.00
37068;BME280;22982;42.848;25.468;2023-09-19T18:21:00;96339.91;;;17.84;100.00
37068;BME280;22982;42.848;25.468;2023-09-19T18:26:03;96331.63;;;17.67;100.00
37068;BME280;22982;42.848;25.468;2023-09-19T18:31:07;96342.63;;;17.53;100.00
37068;BME280;22982;42.848;25.468;2023-09-19T18:36:10;96333.53;;;17.55;100.00
37068;BME280;22982;42.848;25.468;2023-09-19T18:41:14;96336.34;;;17.23;100.00
37068;BME280;22982;42.848;25.468;2023-09-19T18:46:16;96346.31;;;17.40;100.00
37068;BME280;22982;42.848;25.468;2023-09-19T18:51:20;96339.28;;;17.60;100.00
37068;BME280;22982;42.848;25.468;2023-09-19T18:56:23;96339.16;;;17.72;100.00
37068;BME280;22982;42.848;25.468;2023-09-19T19:01:26;96338.47;;;17.70;100.00
37068;BME280;22982;42.848;25.468;2023-09-19T19:06:29;96338.00;;;17.55;100.00
37068;BME280;22982;42.848;25.468;2023-09-19T19:11:32;96325.91;;;17.31;100.00
37068;BME280;22982;42.848;25.468;2023-09-19T19:16:36;96343.44;;;17.22;100.00
37068;BME280;22982;42.848;25.468;2023-09-19T19:21:39;96336.19;;;16.94;100.00
37068;BME280;22982;42.848;25.468;2023-09-19T19:26:42;96339.06;;;17.12;100.00
37068;BME280;22982;42.848;25.468;2023-09-19T19:31:47;96353.38;;;17.30;100.00
37068;BME280;22982;42.848;25.468;2023-09-19T19:36:51;96339.69;;;17.25;100.00
37068;BME280;22982;42.848;25.468;2023-09-19T19:41:53;96353.09;;;17.02;100.00
37068;BME280;22982;42.848;25.468;2023-09-19T19:46:56;96372.03;;;16.98;100.00
37068;BME280;22982;42.848;25.468;2023-09-19T19:51:59;96338.00;;;16.93;100.00
37068;BME280;22982;42.848;25.468;2023-09-19T19:57:01;96355.53;;;17.15;100.00
37068;BME280;22982;42.848;25.468;2023-09-19T20:02:06;96351.03;;;16.85;100.00
37068;BME280;22982;42.848;25.468;2023-09-19T20:07:08;96359.66;;;16.98;100.00
37068;BME280;22982;42.848;25.468;2023-09-19T20:12:13;96360.81;;;16.84;100.00
37068;BME280;22982;42.848;25.468;2023-09-19T20:17:15;96326.72;;;16.59;100.00
37068;BME280;22982;42.848;25.468;2023-09-19T20:22:18;96361.84;;;16.82;100.00
37068;BME280;22982;42.848;25.468;2023-09-19T20:27:21;96373.03;;;16.64;100.00
37068;BME280;22982;42.848;25.468;2023-09-19T20:32:24;96372.41;;;16.40;100.00
37068;BME280;22982;42.848;25.468;2023-09-19T20:37:27;96374.34;;;16.38;100.00
37068;BME280;22982;42.848;25.468;2023-09-19T20:42:29;96382.03;;;16.30;100.00
37068;BME280;22982;42.848;25.468;2023-09-19T20:47:32;96345.00;;;16.30;100.00
37068;BME280;22982;42.848;25.468;2023-09-19T20:52:37;96373.69;;;16.57;100.00
37068;BME280;22982;42.848;25.468;2023-09-19T20:57:40;96366.16;;;16.41;100.00
37068;BME280;22982;42.848;25.468;2023-09-19T21:02:42;96377.94;;;16.37;100.00
37068;BME280;22982;42.848;25.468;2023-09-19T21:07:47;96395.56;;;16.26;100.00
37068;BME280;22982;42.848;25.468;2023-09-19T21:12:51;96385.72;;;16.06;100.00
37068;BME280;22982;42.848;25.468;2023-09-19T21:17:53;96398.75;;;15.98;100.00
37068;BME280;22982;42.848;25.468;2023-09-19T21:22:57;96370.88;;;15.94;100.00
37068;BME280;22982;42.848;25.468;2023-09-19T21:28:00;96392.28;;;15.79;100.00
37068;BME280;22982;42.848;25.468;2023-09-19T21:33:04;96398.72;;;15.64;100.00
37068;BME280;22982;42.848;25.468;2023-09-19T21:38:06;96413.97;;;15.72;100.00
37068;BME280;22982;42.848;25.468;2023-09-19T21:43:10;96381.19;;;15.51;100.00
37068;BME280;22982;42.848;25.468;2023-09-19T21:48:12;96420.59;;;15.55;100.00
37068;BME280;22982;42.848;25.468;2023-09-19T21:53:15;96425.53;;;15.59;100.00
37068;BME280;22982;42.848;25.468;2023-09-19T21:58:18;96429.97;;;15.36;100.00
37068;BME280;22982;42.848;25.468;2023-09-19T22:03:21;96421.66;;;14.83;100.00
37068;BME280;22982;42.848;25.468;2023-09-19T22:08:25;96421.91;;;14.80;100.00
37068;BME280;22982;42.848;25.468;2023-09-19T22:13:28;96426.34;;;14.90;100.00
37068;BME280;22982;42.848;25.468;2023-09-19T22:18:32;96438.50;;;14.93;100.00
37068;BME280;22982;42.848;25.468;2023-09-19T22:23:36;96469.06;;;14.84;100.00
37068;BME280;22982;42.848;25.468;2023-09-19T22:28:49;96464.28;;;14.41;100.00
37068;BME280;22982;42.848;25.468;2023-09-19T22:33:55;96471.84;;;14.59;100.00
37068;BME280;22982;42.848;25.468;2023-09-19T22:38:58;96484.81;;;14.86;100.00
37068;BME280;22982;42.848;25.468;2023-09-19T22:44:03;96500.41;;;14.65;100.00
37068;BME280;22982;42.848;25.468;2023-09-19T22:49:07;96523.13;;;14.54;100.00
37068;BME280;22982;42.848;25.468;2023-09-19T22:54:18;96533.34;;;14.22;100.00
37068;BME280;22982;42.848;25.468;2023-09-19T22:59:28;96524.47;;;14.23;100.00
37068;BME280;22982;42.848;25.468;2023-09-19T23:04:32;96545.91;;;14.68;100.00
37068;BME280;22982;42.848;25.468;2023-09-19T23:09:36;96526.78;;;14.28;100.00
37068;BME280;22982;42.848;25.468;2023-09-19T23:14:39;96546.13;;;14.52;100.00
37068;BME280;22982;42.848;25.468;2023-09-19T23:19:44;96548.44;;;14.20;100.00
37068;BME280;22982;42.848;25.468;2023-09-19T23:24:51;96541.78;;;14.27;100.00
37068;BME280;22982;42.848;25.468;2023-09-19T23:30:17;96537.59;;;14.49;100.00
37068;BME280;22982;42.848;25.468;2023-09-19T23:35:21;96530.84;;;14.45;100.00
37068;BME280;22982;42.848;25.468;2023-09-19T23:40:25;96541.06;;;14.62;100.00
37068;BME280;22982;42.848;25.468;2023-09-19T23:45:29;96529.00;;;14.21;100.00
37068;BME280;22982;42.848;25.468;2023-09-19T23:50:33;96531.25;;;14.02;100.00
37068;BME280;22982;42.848;25.468;2023-09-19T23:55:43;96532.72;;;14.19;100.00
